Huvudsida
METAR-TAF:

METAR-TAF

Flygplatser :

Tromsø flygplats

Tromsø, Norge

latitud: 69-41N, longitud: 018-55E, höjd: 1 m

Aktuellt väderrapport

Denna rapport gjordes för 31 minuter sedan, klockan 07:20 UTC
Vind 18 kt från syd/sydväst
Temperatur 8°C
Fuktighet 66%
Tryck 999 hPa
Sikt 10 km eller mer
Brutna moln på en höjd av 4000 ft

METAR: ENTC 180720Z 21018KT 9999 BKN040 08/02 Q0999 NOSIG RMK WIND 2600FT 19030KT

Tid: 09:51 (07:51 UTC)

Väderprognos

Prognos gäller från 18 kl. 06 UTC till 19 kl. 06 UTC
Vind 15 kt från syd/sydväst
Sikt 10 km eller mer
Få moln på en höjd av 1500 ft
Brutna moln på en höjd av 3000 ft
Temporärt
från 18 kl. 14 UTC till 19 kl. 03 UTC
Sikt: 4000 m
Brutna moln på en höjd av 1500 ft, Cumulonimbus.
regnskurar
Blir
från 18 kl. 22 UTC till 18 kl. 24 UTC
Vind 8 kt från väst

TAF: ENTC 1806/1906 20015KT 9999 FEW015 BKN030 TEMPO 1814/1903 4000 SHRA BKN015CB BECMG 1822/1824 27008KT

Aktuella väderrapporter och prognoser från 4000 flygplatser (METAR- och TAF-rapporter).

De tillgängliga stationerna syns som gula och röda prickar på kartan.

För musen över prickarna för att se namnen på stationerna.

Klicka sedan för att få väderrapporter och prognoser.

För att ändra kartan: Klicka på de gröna knapparna med ett svart kors på för att zooma in; den gröna knappen med ett streck på för att zooma ut; eller på de gröna pilarna för angränsande kartor.


METAR-TAF: